Time;durP1;ratioP1;P1;durP2;ratioP2;P2;SDS_P1;SDS_P2;PMS_P1;PMS_P2;Temp;Humidity;BMP_temperature;BMP_pressure;BME280_temperature;BME280_humidity;BME280_pressure;Samples;Min_cycle;Max_cycle;Signal;HPM_P1;HPM_P2
2023/04/17 00:04:11;;;;;;;16.13;9.77;;;6.70;99.90;;;;;;10538469;28;20227;-85
2023/04/17 00:09:33;;;;;;;14.23;10.27;;;6.70;99.90;;;;;;10494469;28;20205;-86
2023/04/17 00:14:54;;;;;;;12.20;10.00;;;6.70;99.90;;;;;;10520958;28;20203;-86
2023/04/17 00:20:15;;;;;;;14.20;10.27;;;6.70;99.90;;;;;;10493635;28;20378;-87
2023/04/17 00:25:36;;;;;;;11.53;9.80;;;6.60;99.90;;;;;;10499529;28;20254;-86
2023/04/17 00:30:58;;;;;;;11.10;9.13;;;6.60;99.90;;;;;;10496240;28;20202;-85
2023/04/17 00:36:19;;;;;;;10.33;8.47;;;6.60;99.90;;;;;;10513726;28;20277;-86
2023/04/17 00:41:41;;;;;;;9.60;8.60;;;6.60;99.90;;;;;;10508618;28;20195;-86
2023/04/17 00:47:02;;;;;;;11.20;8.63;;;6.60;99.90;;;;;;10509418;28;20240;-87
2023/04/17 00:52:31;;;;;;;13.53;10.40;;;6.60;99.90;;;;;;10481894;28;20207;-87
2023/04/17 00:57:52;;;;;;;11.00;9.03;;;6.50;99.90;;;;;;10494296;28;20262;-85
2023/04/17 01:03:15;;;;;;;12.00;9.40;;;6.40;99.90;;;;;;10516224;28;20196;-87
2023/04/17 01:08:41;;;;;;;11.37;9.23;;;6.40;99.90;;;;;;10517915;28;20281;-86
2023/04/17 01:14:02;;;;;;;10.00;8.00;;;6.40;99.90;;;;;;10511592;28;20204;-86
2023/04/17 01:19:26;;;;;;;11.17;8.40;;;6.40;99.90;;;;;;10508071;28;20218;-85
2023/04/17 01:24:48;;;;;;;9.57;8.57;;;6.30;99.90;;;;;;10505361;28;20276;-85
2023/04/17 01:30:10;;;;;;;9.13;7.40;;;6.20;99.90;;;;;;10524274;28;20191;-85
2023/04/17 01:35:38;;;;;;;9.70;7.70;;;6.30;99.90;;;;;;10502116;28;20250;-84
2023/04/17 01:41:07;;;;;;;9.83;7.43;;;6.30;99.90;;;;;;10490850;28;20199;-85
2023/04/17 01:46:28;;;;;;;6.73;5.93;;;6.30;99.90;;;;;;10507110;28;20209;-85
2023/04/17 01:51:49;;;;;;;7.73;6.90;;;6.30;99.90;;;;;;10501733;28;20210;-85
2023/04/17 01:57:11;;;;;;;7.60;6.50;;;6.30;99.90;;;;;;10507799;28;20532;-85
2023/04/17 02:02:33;;;;;;;6.47;5.77;;;6.40;99.90;;;;;;10505537;28;20220;-85
2023/04/17 02:07:54;;;;;;;6.80;6.10;;;6.30;99.90;;;;;;10497676;28;20307;-85
2023/04/17 02:13:19;;;;;;;10.13;6.17;;;6.40;99.90;;;;;;10489287;28;20195;-85
2023/04/17 02:18:40;;;;;;;8.97;5.40;;;6.40;99.90;;;;;;10506062;28;20494;-86
2023/04/17 02:24:02;;;;;;;6.53;5.27;;;6.30;99.90;;;;;;10522889;28;20206;-85
2023/04/17 02:29:23;;;;;;;6.90;6.20;;;6.30;99.90;;;;;;10544763;28;20246;-85
2023/04/17 02:34:45;;;;;;;6.70;5.97;;;6.30;99.90;;;;;;10532162;28;20195;-85
2023/04/17 02:40:09;;;;;;;7.17;6.00;;;6.30;99.90;;;;;;10505913;28;20262;-85
2023/04/17 02:45:31;;;;;;;8.47;6.37;;;6.30;99.90;;;;;;10491164;28;20223;-85
2023/04/17 02:50:54;;;;;;;7.73;6.60;;;6.30;99.90;;;;;;10513583;28;20232;-85
2023/04/17 02:56:16;;;;;;;8.37;6.23;;;6.30;99.90;;;;;;10530000;28;20266;-86
2023/04/17 03:01:39;;;;;;;8.77;5.80;;;6.20;99.90;;;;;;10523651;28;20202;-86
2023/04/17 03:07:00;;;;;;;6.47;5.50;;;6.10;99.90;;;;;;10504940;28;20223;-86
2023/04/17 03:12:22;;;;;;;6.50;5.80;;;6.30;99.90;;;;;;10529668;28;20211;-86
2023/04/17 03:17:44;;;;;;;7.43;5.77;;;6.30;99.90;;;;;;10560543;28;20485;-86
2023/04/17 03:23:05;;;;;;;7.20;5.60;;;6.30;99.90;;;;;;10501199;28;20452;-87
2023/04/17 03:28:27;;;;;;;5.97;5.30;;;6.30;99.90;;;;;;10503930;28;20228;-86
2023/04/17 03:33:49;;;;;;;5.23;4.67;;;6.30;99.90;;;;;;10503972;28;20192;-86
2023/04/17 03:39:10;;;;;;;6.03;4.97;;;6.30;99.90;;;;;;10462517;28;20231;-85
2023/04/17 03:44:32;;;;;;;6.00;4.83;;;6.30;99.90;;;;;;10462433;28;20281;-86
2023/04/17 03:49:53;;;;;;;5.10;4.60;;;6.30;99.90;;;;;;10452057;28;20226;-86
2023/04/17 03:55:18;;;;;;;5.73;5.10;;;6.40;99.90;;;;;;10478526;28;20207;-85
2023/04/17 04:00:41;;;;;;;7.20;5.43;;;6.30;99.90;;;;;;10462015;28;20486;-86
2023/04/17 04:06:03;;;;;;;7.33;5.17;;;6.30;99.90;;;;;;10471408;28;20276;-86
2023/04/17 04:11:25;;;;;;;8.83;5.97;;;6.30;99.90;;;;;;10448096;28;20455;-86
2023/04/17 04:16:47;;;;;;;10.07;6.57;;;6.40;99.90;;;;;;10453799;28;20216;-86
2023/04/17 04:22:09;;;;;;;8.40;5.80;;;6.40;99.90;;;;;;10469447;28;20406;-86
2023/04/17 04:27:48;;;;;;;10.73;7.03;;;6.50;99.90;;;;;;10482563;28;20256;-86
2023/04/17 04:33:14;;;;;;;7.57;5.90;;;6.50;99.90;;;;;;10458995;28;20220;-84
2023/04/17 04:38:36;;;;;;;6.67;5.27;;;6.50;99.90;;;;;;10510002;28;20277;-86
2023/04/17 04:44:08;;;;;;;6.20;5.60;;;6.50;99.90;;;;;;10494381;28;20204;-86
2023/04/17 04:49:32;;;;;;;5.90;4.93;;;6.50;99.90;;;;;;10510431;28;20545;-85
2023/04/17 04:54:53;;;;;;;6.33;5.47;;;6.60;99.90;;;;;;10512857;28;20495;-86
2023/04/17 05:00:16;;;;;;;10.90;7.53;;;6.50;99.90;;;;;;10537046;28;20198;-85
2023/04/17 05:05:42;;;;;;;23.90;13.40;;;6.50;99.90;;;;;;10526123;28;20302;-85
2023/04/17 05:11:06;;;;;;;40.53;18.00;;;6.60;99.90;;;;;;10533434;28;20196;-85
2023/04/17 05:16:28;;;;;;;9.20;5.87;;;6.70;99.90;;;;;;10536568;28;20196;-86
2023/04/17 05:21:51;;;;;;;11.20;5.77;;;6.60;99.90;;;;;;10528299;28;20204;-85
2023/04/17 05:27:14;;;;;;;10.47;5.90;;;6.60;99.90;;;;;;10548748;28;20223;-88
2023/04/17 05:32:36;;;;;;;8.60;5.00;;;6.70;99.90;;;;;;10549246;28;20223;-86
2023/04/17 05:38:21;;;;;;;6.43;4.63;;;6.70;99.90;;;;;;10526695;28;20234;-85
2023/04/17 05:43:42;;;;;;;4.93;4.30;;;6.80;99.90;;;;;;10531935;28;20195;-85
2023/04/17 05:49:04;;;;;;;9.57;5.37;;;6.80;99.90;;;;;;10545528;28;20416;-85
2023/04/17 05:54:29;;;;;;;11.00;6.50;;;6.90;99.90;;;;;;10528095;28;20186;-95
2023/04/17 06:00:44;;;;;;;16.70;9.53;;;7.10;99.90;;;;;;11671460;22;20246;-85
2023/04/17 06:06:09;;;;;;;19.50;12.80;;;7.20;99.90;;;;;;10356371;28;20238;-86
2023/04/17 06:11:30;;;;;;;12.03;9.77;;;7.30;99.90;;;;;;10328898;28;20198;-88
2023/04/17 06:16:51;;;;;;;25.80;17.50;;;7.30;99.90;;;;;;10342509;28;20226;-89
2023/04/17 06:22:13;;;;;;;7.80;6.63;;;7.30;99.90;;;;;;10341571;28;20235;-89
2023/04/17 06:27:34;;;;;;;10.87;6.37;;;7.40;99.90;;;;;;10341588;28;20237;-88
2023/04/17 06:32:56;;;;;;;21.03;9.37;;;7.50;99.90;;;;;;10354841;28;20206;-88
2023/04/17 06:38:18;;;;;;;19.93;9.97;;;7.50;99.90;;;;;;10340391;28;20311;-86
2023/04/17 06:43:39;;;;;;;6.00;4.97;;;7.60;99.90;;;;;;10341552;28;20291;-87
2023/04/17 06:49:07;;;;;;;7.23;6.07;;;7.60;99.90;;;;;;10347097;28;20237;-87
2023/04/17 06:54:29;;;;;;;24.90;16.83;;;7.60;99.90;;;;;;10378875;28;20222;-88
2023/04/17 06:59:50;;;;;;;11.70;9.00;;;7.70;99.90;;;;;;10340529;28;20306;-88
2023/04/17 07:05:12;;;;;;;12.10;8.43;;;7.60;99.90;;;;;;10340070;28;20231;-88
2023/04/17 07:10:34;;;;;;;9.77;6.17;;;7.70;99.90;;;;;;10325981;28;20572;-89
2023/04/17 07:15:57;;;;;;;7.10;5.23;;;7.70;99.90;;;;;;10340969;28;20328;-88
2023/04/17 07:21:18;;;;;;;6.53;4.40;;;7.60;99.90;;;;;;10341494;28;20277;-88
2023/04/17 07:26:42;;;;;;;5.13;3.93;;;7.70;99.90;;;;;;10343712;28;20285;-90
2023/04/17 07:32:03;;;;;;;4.07;3.63;;;7.80;99.90;;;;;;10308261;28;20278;-85
2023/04/17 07:37:25;;;;;;;7.60;4.70;;;7.90;99.90;;;;;;10241257;28;20478;-81
2023/04/17 07:42:47;;;;;;;11.33;6.83;;;7.80;99.90;;;;;;10320731;28;20283;-83
2023/04/17 07:48:09;;;;;;;8.30;5.77;;;7.90;99.90;;;;;;10268974;28;20319;-81
2023/04/17 07:53:30;;;;;;;22.30;9.93;;;8.00;99.90;;;;;;10259086;29;20337;-86
2023/04/17 07:58:52;;;;;;;41.50;17.73;;;8.00;99.90;;;;;;10275970;28;20248;-86
2023/04/17 08:04:13;;;;;;;18.50;10.80;;;8.20;99.90;;;;;;10260252;29;20231;-86
2023/04/17 08:09:36;;;;;;;10.37;6.30;;;8.40;99.90;;;;;;10299652;28;20285;-89
2023/04/17 08:14:59;;;;;;;10.23;6.10;;;8.60;99.90;;;;;;10292356;28;20263;-82
2023/04/17 08:20:21;;;;;;;8.07;5.50;;;8.70;99.90;;;;;;10280795;28;20279;-82
2023/04/17 08:25:43;;;;;;;7.50;4.90;;;8.80;99.90;;;;;;10302113;28;20559;-81
2023/04/17 08:31:05;;;;;;;12.67;7.93;;;8.80;99.90;;;;;;10303786;28;20210;-82
2023/04/17 08:36:27;;;;;;;13.80;8.60;;;8.80;99.90;;;;;;10314213;28;20213;-85
2023/04/17 08:41:54;;;;;;;19.63;10.13;;;8.90;99.90;;;;;;10286465;28;20285;-81
2023/04/17 08:47:17;;;;;;;16.23;7.93;;;9.00;99.90;;;;;;10301498;28;20278;-79
2023/04/17 08:52:40;;;;;;;19.53;8.97;;;9.20;99.90;;;;;;10247152;29;20284;-84
2023/04/17 08:58:04;;;;;;;22.20;9.47;;;9.20;99.90;;;;;;10263822;28;20257;-85
2023/04/17 09:03:39;;;;;;;14.73;7.57;;;9.40;99.90;;;;;;10250582;28;20258;-84
2023/04/17 09:09:02;;;;;;;9.37;6.30;;;9.40;99.90;;;;;;10269274;28;20240;-84
2023/04/17 09:14:30;;;;;;;9.97;5.83;;;9.30;99.90;;;;;;10287637;28;20198;-84
2023/04/17 09:20:06;;;;;;;9.57;6.33;;;9.40;99.90;;;;;;10273380;29;20203;-84
2023/04/17 09:25:28;;;;;;;12.73;7.03;;;9.40;99.90;;;;;;10291232;28;20400;-79
2023/04/17 09:30:50;;;;;;;9.17;6.00;;;9.40;98.30;;;;;;10304664;28;20221;-80
2023/04/17 09:36:20;;;;;;;5.80;4.80;;;9.40;97.60;;;;;;10296641;28;20507;-84
2023/04/17 09:41:42;;;;;;;7.73;5.07;;;9.40;98.90;;;;;;10346890;28;20525;-92
2023/04/17 09:47:04;;;;;;;8.93;6.00;;;9.40;99.00;;;;;;10250951;29;20278;-82
2023/04/17 09:52:25;;;;;;;7.97;5.93;;;9.50;99.40;;;;;;10232299;29;20502;-84
2023/04/17 09:57:55;;;;;;;10.47;6.83;;;9.60;99.10;;;;;;10274897;28;20514;-85
2023/04/17 10:03:17;;;;;;;8.77;7.17;;;9.60;99.70;;;;;;10441123;23;20244;-91
2023/04/17 10:08:41;;;;;;;9.93;5.53;;;9.60;98.60;;;;;;10288424;28;20254;-92
2023/04/17 10:14:21;;;;;;;5.13;4.40;;;9.60;97.30;;;;;;10288509;28;20312;-93
2023/04/17 10:19:43;;;;;;;5.00;4.20;;;9.50;96.70;;;;;;10429993;23;20446;-85
2023/04/17 10:25:13;;;;;;;21.07;13.63;;;9.50;96.80;;;;;;10257964;29;20281;-91
2023/04/17 10:31:01;;;;;;;19.30;11.93;;;9.50;97.20;;;;;;10274770;28;20240;-93
2023/04/17 10:36:37;;;;;;;9.77;7.47;;;9.40;97.30;;;;;;10271720;28;20208;-88
2023/04/17 10:42:03;;;;;;;7.80;6.50;;;9.60;97.40;;;;;;10296023;23;20603;-91
2023/04/17 10:47:33;;;;;;;14.80;8.13;;;9.70;96.60;;;;;;10275211;28;20233;-89
2023/04/17 10:53:08;;;;;;;10.57;6.53;;;9.80;96.40;;;;;;10268817;28;20245;-90
2023/04/17 10:58:30;;;;;;;22.93;13.67;;;9.80;96.70;;;;;;10253877;28;20207;-91
2023/04/17 11:03:54;;;;;;;27.20;15.37;;;9.90;97.00;;;;;;10271856;28;20221;-93
2023/04/17 11:09:15;;;;;;;14.07;8.50;;;10.00;96.20;;;;;;10271443;28;20241;-89
2023/04/17 11:14:41;;;;;;;47.60;22.63;;;9.90;95.50;;;;;;10332990;23;20207;-87
2023/04/17 11:20:06;;;;;;;17.17;10.50;;;9.90;95.70;;;;;;10217880;29;20403;-90
2023/04/17 11:25:30;;;;;;;10.20;6.97;;;10.10;96.10;;;;;;10207380;29;20230;-90
2023/04/17 11:30:51;;;;;;;12.17;6.87;;;10.10;95.70;;;;;;10205608;29;20204;-89
2023/04/17 11:36:33;;;;;;;17.40;9.37;;;10.10;97.10;;;;;;10241554;29;20233;-90
2023/04/17 11:42:26;;;;;;;11.30;7.83;;;10.00;97.90;;;;;;10242685;28;20227;-89
2023/04/17 11:47:48;;;;;;;10.83;6.67;;;9.80;97.70;;;;;;10383927;23;20482;-88
2023/04/17 11:53:14;;;;;;;8.73;6.43;;;9.60;98.50;;;;;;10277156;28;20210;-85
2023/04/17 11:58:51;;;;;;;15.73;8.40;;;9.60;98.90;;;;;;10253235;28;20223;-82
2023/04/17 12:04:20;;;;;;;15.90;9.07;;;9.70;99.30;;;;;;10252119;28;20203;-87
2023/04/17 12:09:41;;;;;;;7.67;5.90;;;9.60;97.60;;;;;;10275606;28;20293;-87
2023/04/17 12:15:03;;;;;;;6.27;4.83;;;9.60;98.90;;;;;;10306386;28;20205;-87
2023/04/17 12:20:25;;;;;;;9.67;6.10;;;9.50;98.50;;;;;;10304651;28;20205;-86
2023/04/17 12:25:46;;;;;;;10.90;6.37;;;9.60;99.00;;;;;;10270892;28;20226;-88
2023/04/17 12:31:09;;;;;;;8.93;6.13;;;9.60;98.80;;;;;;10278880;28;20266;-83
2023/04/17 12:36:30;;;;;;;16.87;7.70;;;9.70;97.90;;;;;;10272956;28;20222;-81
2023/04/17 12:41:52;;;;;;;11.43;7.10;;;9.70;97.80;;;;;;10330494;28;20229;-86
2023/04/17 12:47:13;;;;;;;19.40;10.00;;;9.90;98.60;;;;;;10274604;28;20281;-86
2023/04/17 12:52:35;;;;;;;23.93;11.57;;;10.00;97.30;;;;;;10258322;28;20211;-84
2023/04/17 12:57:57;;;;;;;25.00;13.57;;;10.00;96.10;;;;;;10272514;28;20389;-80
2023/04/17 13:03:19;;;;;;;11.40;6.73;;;10.00;96.30;;;;;;10273347;28;20217;-81
2023/04/17 13:08:40;;;;;;;10.07;5.50;;;10.10;92.90;;;;;;10284501;28;20256;-84
2023/04/17 13:14:01;;;;;;;10.33;6.27;;;9.90;93.70;;;;;;10287564;28;20272;-85
2023/04/17 13:19:23;;;;;;;14.10;7.20;;;10.00;95.40;;;;;;10278132;28;20212;-85
2023/04/17 13:24:44;;;;;;;10.70;6.83;;;10.00;94.80;;;;;;10306275;28;20222;-81
2023/04/17 13:30:06;;;;;;;8.97;6.33;;;10.10;96.00;;;;;;10288402;28;20365;-81
2023/04/17 13:35:27;;;;;;;7.27;5.80;;;10.20;94.70;;;;;;10273465;28;20243;-79
2023/04/17 13:40:49;;;;;;;9.57;5.53;;;10.20;94.00;;;;;;10300616;28;20523;-82
2023/04/17 13:46:14;;;;;;;7.80;5.57;;;10.20;93.80;;;;;;10271010;28;20243;-85
2023/04/17 13:51:36;;;;;;;7.03;5.37;;;10.30;94.60;;;;;;10252731;29;20282;-81
2023/04/17 13:56:57;;;;;;;5.70;4.80;;;10.20;94.00;;;;;;10292309;23;20254;-80
2023/04/17 14:02:18;;;;;;;12.43;6.00;;;10.30;92.70;;;;;;10275335;28;20215;-83
2023/04/17 14:07:42;;;;;;;10.07;6.50;;;10.20;93.00;;;;;;10265696;28;20232;-82
2023/04/17 14:13:03;;;;;;;7.53;5.30;;;10.10;94.20;;;;;;10278489;28;20194;-87
2023/04/17 14:18:25;;;;;;;7.67;5.73;;;9.80;95.30;;;;;;10283526;28;20211;-82
2023/04/17 14:23:47;;;;;;;11.13;6.90;;;9.70;95.40;;;;;;10276040;28;20195;-84
2023/04/17 14:29:12;;;;;;;6.80;4.40;;;9.70;92.80;;;;;;10296282;28;20234;-83
2023/04/17 14:34:33;;;;;;;8.33;4.10;;;9.50;93.50;;;;;;10274280;28;20212;-81
2023/04/17 14:39:56;;;;;;;6.47;4.33;;;9.70;94.20;;;;;;10268939;28;20588;-83
2023/04/17 14:45:17;;;;;;;7.60;4.10;;;9.70;92.60;;;;;;10262281;28;20202;-82
2023/04/17 14:50:39;;;;;;;6.83;4.80;;;9.70;91.90;;;;;;10274192;28;20552;-81
2023/04/17 14:56:00;;;;;;;7.80;5.40;;;9.90;93.20;;;;;;10276064;28;20242;-84
2023/04/17 15:01:22;;;;;;;12.83;7.10;;;9.70;95.40;;;;;;10253568;29;20315;-89
2023/04/17 15:06:48;;;;;;;12.77;7.23;;;9.60;96.10;;;;;;10280690;28;20541;-90
2023/04/17 15:12:09;;;;;;;7.00;4.83;;;9.60;95.70;;;;;;10269659;28;20372;-81
2023/04/17 15:17:30;;;;;;;10.00;5.57;;;9.50;96.80;;;;;;10269943;28;20213;-83
2023/04/17 15:22:55;;;;;;;14.77;7.83;;;9.40;97.20;;;;;;10286131;28;20412;-84
2023/04/17 15:28:16;;;;;;;8.23;5.70;;;9.30;97.20;;;;;;10279082;28;20216;-81
2023/04/17 15:33:37;;;;;;;19.90;9.00;;;9.30;97.20;;;;;;10284789;28;20207;-84
2023/04/17 15:38:58;;;;;;;9.43;6.33;;;9.10;96.10;;;;;;10239692;28;20221;-84
2023/04/17 15:44:19;;;;;;;12.53;6.97;;;9.00;96.70;;;;;;10275550;28;20200;-82
2023/04/17 15:49:42;;;;;;;14.00;8.20;;;8.90;97.20;;;;;;10273958;29;20225;-84
2023/04/17 15:55:03;;;;;;;9.80;6.33;;;8.80;98.40;;;;;;10288957;28;20268;-83
2023/04/17 16:00:25;;;;;;;8.70;5.63;;;8.80;98.80;;;;;;10272049;28;20265;-84
2023/04/17 16:05:46;;;;;;;7.70;5.63;;;8.80;98.00;;;;;;10272642;28;20271;-83
2023/04/17 16:11:09;;;;;;;10.67;7.30;;;8.80;98.40;;;;;;10277218;28;20211;-85
2023/04/17 16:16:31;;;;;;;14.63;8.73;;;8.70;98.10;;;;;;10308831;28;20402;-83
2023/04/17 16:21:52;;;;;;;14.87;8.87;;;8.70;99.00;;;;;;10333642;28;20486;-83
2023/04/17 16:27:14;;;;;;;12.60;8.10;;;8.70;99.90;;;;;;10297535;28;20312;-83
2023/04/17 16:32:35;;;;;;;15.33;8.47;;;8.80;99.90;;;;;;10293099;28;20191;-82
2023/04/17 16:37:56;;;;;;;13.87;8.33;;;8.80;99.90;;;;;;10277820;28;20233;-83
2023/04/17 16:43:18;;;;;;;11.43;7.20;;;8.80;99.90;;;;;;10253278;29;20220;-83
2023/04/17 16:48:39;;;;;;;12.40;7.37;;;8.60;99.90;;;;;;10261496;29;20236;-84
2023/04/17 16:54:00;;;;;;;17.50;10.33;;;8.50;99.90;;;;;;10278659;28;20199;-83
2023/04/17 16:59:22;;;;;;;9.87;6.07;;;8.40;99.90;;;;;;10291564;28;20317;-80
2023/04/17 17:04:44;;;;;;;9.10;6.50;;;8.30;99.90;;;;;;10278394;28;20275;-82
2023/04/17 17:10:06;;;;;;;11.07;6.90;;;8.40;99.90;;;;;;10291009;28;20267;-83
2023/04/17 17:15:28;;;;;;;10.13;7.13;;;8.50;99.90;;;;;;10291254;28;20203;-83
2023/04/17 17:20:49;;;;;;;10.27;6.93;;;8.40;99.90;;;;;;10277246;28;20199;-83
2023/04/17 17:26:10;;;;;;;11.87;8.40;;;8.40;99.90;;;;;;10276748;29;20216;-84
2023/04/17 17:31:33;;;;;;;10.90;6.33;;;8.50;99.90;;;;;;10312041;28;20193;-84
2023/04/17 17:36:54;;;;;;;14.03;7.77;;;8.50;99.90;;;;;;10306218;28;20204;-84
2023/04/17 17:42:15;;;;;;;12.30;7.43;;;8.40;99.90;;;;;;10275428;28;20431;-83
2023/04/17 17:47:38;;;;;;;14.27;8.87;;;8.30;99.90;;;;;;10290277;28;20311;-84
2023/04/17 17:52:59;;;;;;;14.10;8.77;;;8.30;99.90;;;;;;10290409;28;20502;-82
2023/04/17 17:58:21;;;;;;;16.87;8.73;;;8.20;99.90;;;;;;10276709;28;20265;-83
2023/04/17 18:03:42;;;;;;;11.70;7.87;;;8.20;99.90;;;;;;10276211;28;20463;-82
2023/04/17 18:09:04;;;;;;;14.70;9.03;;;8.10;99.90;;;;;;10275237;28;20234;-82
2023/04/17 18:14:26;;;;;;;13.23;9.40;;;8.00;99.90;;;;;;10275768;28;20200;-82
2023/04/17 18:19:47;;;;;;;16.03;10.93;;;7.90;99.90;;;;;;10251896;28;20543;-81
2023/04/17 18:25:09;;;;;;;16.67;11.00;;;7.90;99.90;;;;;;10271641;29;20397;-84
2023/04/17 18:30:30;;;;;;;17.67;11.17;;;7.90;99.90;;;;;;10313695;28;20392;-83
2023/04/17 18:35:52;;;;;;;20.40;12.70;;;8.00;99.90;;;;;;10314675;28;20199;-84
2023/04/17 18:41:13;;;;;;;18.73;13.10;;;7.90;99.90;;;;;;10273749;29;20233;-84
2023/04/17 18:46:34;;;;;;;17.47;11.80;;;7.80;99.90;;;;;;10274749;28;20416;-84
2023/04/17 18:51:55;;;;;;;17.90;13.03;;;7.80;99.90;;;;;;10288246;28;20276;-84
2023/04/17 18:57:16;;;;;;;17.10;12.83;;;7.80;99.90;;;;;;10285993;28;20228;-84
2023/04/17 19:02:39;;;;;;;18.47;13.50;;;7.80;99.90;;;;;;10289959;28;20201;-84
2023/04/17 19:08:00;;;;;;;19.57;13.57;;;7.80;99.90;;;;;;10286873;28;20312;-83
2023/04/17 19:13:22;;;;;;;20.17;12.73;;;7.80;99.90;;;;;;10287717;28;20537;-82
2023/04/17 19:18:43;;;;;;;19.63;13.50;;;7.70;99.90;;;;;;10273796;29;20235;-83
2023/04/17 19:24:06;;;;;;;18.83;12.50;;;7.70;99.90;;;;;;10275042;28;20208;-80
2023/04/17 19:29:27;;;;;;;16.50;11.40;;;7.70;99.90;;;;;;10290155;28;20262;-78
2023/04/17 19:34:48;;;;;;;17.03;10.23;;;7.60;99.90;;;;;;10307050;28;20515;-79
2023/04/17 19:40:10;;;;;;;16.70;11.13;;;7.60;99.90;;;;;;10286014;28;20290;-80
2023/04/17 19:45:38;;;;;;;15.33;10.77;;;7.50;99.90;;;;;;10278328;28;20191;-78
2023/04/17 19:50:59;;;;;;;15.03;10.80;;;7.50;99.90;;;;;;10280174;29;20234;-79
2023/04/17 19:56:20;;;;;;;17.07;12.47;;;7.50;99.90;;;;;;10279746;28;20267;-80
2023/04/17 20:01:43;;;;;;;18.27;11.60;;;7.50;99.90;;;;;;10293910;28;20380;-80
2023/04/17 20:07:05;;;;;;;15.03;10.20;;;7.40;99.90;;;;;;10279538;28;20249;-80
2023/04/17 20:12:26;;;;;;;14.83;10.37;;;7.30;99.90;;;;;;10279849;28;20251;-81
2023/04/17 20:17:48;;;;;;;16.90;10.20;;;7.20;99.90;;;;;;10280405;28;20391;-80
2023/04/17 20:23:09;;;;;;;15.73;10.83;;;7.20;99.90;;;;;;10279706;28;20223;-79
2023/04/17 20:28:30;;;;;;;15.90;10.37;;;7.20;99.90;;;;;;10289706;28;20254;-79
2023/04/17 20:33:51;;;;;;;14.60;10.53;;;7.20;99.90;;;;;;10334976;28;20257;-79
2023/04/17 20:39:13;;;;;;;19.60;11.20;;;7.20;99.90;;;;;;10288113;28;20203;-80
2023/04/17 20:44:34;;;;;;;18.00;10.60;;;7.20;99.90;;;;;;10279795;28;20187;-81
2023/04/17 20:49:55;;;;;;;15.10;11.33;;;7.30;99.90;;;;;;10278856;29;20220;-80
2023/04/17 20:55:18;;;;;;;18.07;10.97;;;7.20;99.90;;;;;;10238557;29;20276;-81
2023/04/17 21:00:40;;;;;;;15.80;10.37;;;7.10;99.90;;;;;;10254334;28;20223;-78
2023/04/17 21:06:05;;;;;;;21.53;11.10;;;7.10;99.90;;;;;;10264198;29;20207;-79
2023/04/17 21:11:26;;;;;;;17.10;10.77;;;7.20;99.90;;;;;;10277656;28;20203;-83
2023/04/17 21:16:47;;;;;;;20.13;11.30;;;7.30;99.90;;;;;;10291343;28;20210;-83
2023/04/17 21:22:08;;;;;;;16.70;11.73;;;7.20;99.90;;;;;;10290406;28;20236;-80
2023/04/17 21:27:31;;;;;;;17.30;10.33;;;7.20;99.90;;;;;;10279392;28;20229;-79
2023/04/17 21:32:52;;;;;;;14.97;10.53;;;7.20;99.90;;;;;;10317699;28;20492;-80
2023/04/17 21:38:13;;;;;;;15.77;10.10;;;7.20;99.90;;;;;;10279671;28;20211;-80
2023/04/17 21:43:34;;;;;;;14.53;10.13;;;7.20;99.90;;;;;;10277140;28;20287;-80
2023/04/17 21:48:56;;;;;;;16.07;10.03;;;7.20;99.90;;;;;;10291275;28;20779;-82
2023/04/17 21:54:17;;;;;;;15.80;10.13;;;7.20;99.90;;;;;;10275546;28;20205;-79
2023/04/17 21:59:38;;;;;;;13.97;10.07;;;7.30;99.90;;;;;;10290885;28;20209;-78
2023/04/17 22:05:00;;;;;;;16.60;10.73;;;7.30;99.90;;;;;;10275940;28;20214;-80
2023/04/17 22:10:22;;;;;;;17.47;11.77;;;7.30;99.90;;;;;;10276312;28;20225;-80
2023/04/17 22:15:46;;;;;;;14.83;11.43;;;7.30;99.90;;;;;;10291100;28;20213;-79
2023/04/17 23:14:01;;;;;;;14.67;10.43;;;7.20;99.90;;;;;;10273919;28;20279;-81
2023/04/17 23:19:23;;;;;;;14.60;10.10;;;7.20;99.90;;;;;;10288777;28;20283;-80
2023/04/17 23:24:44;;;;;;;13.50;10.20;;;7.30;99.90;;;;;;10295471;28;20450;-79
2023/04/17 23:30:06;;;;;;;13.63;10.17;;;7.40;99.90;;;;;;10304024;28;20229;-79
2023/04/17 23:35:27;;;;;;;12.13;9.43;;;7.40;99.90;;;;;;10322269;28;20191;-79
2023/04/17 23:40:48;;;;;;;14.67;9.00;;;7.30;99.90;;;;;;10297058;28;20211;-79
2023/04/17 23:46:10;;;;;;;19.93;10.87;;;7.30;99.90;;;;;;10294395;28;20199;-82
2023/04/17 23:51:31;;;;;;;13.57;9.10;;;7.40;99.90;;;;;;10280401;28;20239;-80
2023/04/17 23:56:52;;;;;;;14.67;10.60;;;7.30;99.90;;;;;;10280755;28;20466;-79
